Ummendorf, Germany

4:24 PM CEST on May 25, 2015 (GMT +0200)
Schoeningen | | Change Station
CLOSE
Current Station
Personal Weather Station
Location: Schoeningen, Niedersachsen
Elevation: 480 ft
Nearby Weather Stations

Elev 480 ft 52.13 °N, 10.96 °E | Updated 24 minutes ago

Clear
Clear
61.9 °F
Feels Like 61.9 °F
N
2.4
Wind Variable Wind from West
Gusts 5.0 mph

Today
High -- | Low -- °F
--% Chance of Precip.
Yesterday
High -- | Low -- °F
Precip. -- in
5:07 AM 9:17 PM
Waxing Crescent, 49% visible
Pressure 29.89 in
Visibility -9999.0 miles
Clouds
Dew Point 54 °F
Humidity 75%
Rainfall 0.00 in
Snow Depth Not available.
UV 0.0 out of 12
Pollen Not available.
Air Quality Not available.
Flu Activity Not available.
METAR EDBC 251350Z 31011KT CAVOK 16/09 Q1012

More Conditions Fewer Conditions

Pressure 29.89 in
Visibility -9999.0 miles
Clouds
Dew Point 54 °F
Humidity 75%
Rainfall 0.00 in
Snow Depth Not available.
UV 0.0 out of 12
Pollen Not available.
Air Quality Not available.
Flu Activity Not available.
METAR EDBC 251350Z 31011KT CAVOK 16/09 Q1012

More Conditions Fewer Conditions

10-Day Weather Forecast

Almanac

Astronomy

May. 25, 2015 Rise Set
Actual Time
Civil Twilight
Nautical Twilight
Astronomical Twilight
Moon
Length of Visible Light
Length of Day
Tomorrow will be .
, % of the Moon is Illuminated

Today's Extremes

Country Highs Country Lows

Community

WunderPhotos

Upload Photos

1,824,025 photos uploaded!

WunderBlogs® & News

Nearby

Air Quality

  Air Quality AQ Index Pollutant
Not available.

Snow Depth

Station Depth Elevation

Earthquake Activity

City Distance Mag. Time & Date
Minimum magnitude displayed is 2.5.

Coastal Water Temperatures

Place Temperature

Stations

Nearby Weather Stations

Station Location Temp. Windchill Dew Point Humidity Wind Precip. Elev Updated Type